createdAt,value
2019-02-05T00:01:41.097Z,19.47
2019-02-05T00:04:10.195Z,20.30
2019-02-05T00:06:39.359Z,18.83
2019-02-05T00:09:10.130Z,21.07
2019-02-05T00:11:39.234Z,21.13
2019-02-05T00:14:08.303Z,19.47
2019-02-05T00:16:37.376Z,21.63
2019-02-05T00:19:06.446Z,20.20
2019-02-05T00:21:35.600Z,19.90
2019-02-05T00:24:04.676Z,22.13
2019-02-05T00:26:33.720Z,20.53
2019-02-05T00:29:02.745Z,21.50
2019-02-05T00:31:31.732Z,22.27
2019-02-05T00:34:00.717Z,21.27
2019-02-05T00:36:30.451Z,22.87
2019-02-05T00:39:02.151Z,22.03
2019-02-05T00:41:31.279Z,22.83
2019-02-05T00:44:00.180Z,22.13
2019-02-05T00:46:29.476Z,22.57
2019-02-05T00:48:58.410Z,22.23
2019-02-05T00:51:29.809Z,23.30
2019-02-05T00:53:59.675Z,23.63
2019-02-05T00:56:30.331Z,23.90
2019-02-05T00:58:59.397Z,24.77
2019-02-05T01:01:28.696Z,32.37
2019-02-05T01:03:58.098Z,25.43
2019-02-05T01:06:28.654Z,23.30
2019-02-05T01:08:57.818Z,22.73
2019-02-05T01:11:26.764Z,23.60
2019-02-05T01:13:55.894Z,24.43
2019-02-05T01:16:24.765Z,25.00
2019-02-05T01:18:54.091Z,23.43
2019-02-05T01:21:23.018Z,23.50
2019-02-05T01:23:51.972Z,23.43
2019-02-05T01:26:28.896Z,25.70
2019-02-05T01:28:49.795Z,24.87
2019-02-05T01:31:19.169Z,23.87
2019-02-05T01:33:48.220Z,23.27
2019-02-05T01:36:17.004Z,24.77
2019-02-05T01:38:45.973Z,24.37
2019-02-05T01:41:15.377Z,25.20
2019-02-05T01:43:44.325Z,34.27
2019-02-05T01:46:13.675Z,26.70
2019-02-05T01:48:42.608Z,26.57
2019-02-05T01:51:12.030Z,24.97
2019-02-05T01:53:40.867Z,26.17
2019-02-05T01:56:09.797Z,26.57
2019-02-05T01:58:38.691Z,25.30
2019-02-05T02:01:07.641Z,26.63
2019-02-05T02:03:36.577Z,27.63
2019-02-05T02:06:05.600Z,26.97
2019-02-05T02:08:34.438Z,25.40
2019-02-05T02:11:03.625Z,26.50
2019-02-05T02:13:35.651Z,27.83
2019-02-05T02:16:04.475Z,27.50
2019-02-05T02:18:33.410Z,28.17
2019-02-05T02:21:02.317Z,29.97
2019-02-05T02:23:31.261Z,29.27
2019-02-05T02:26:00.181Z,28.23
2019-02-05T02:28:29.114Z,30.60
2019-02-05T02:30:58.089Z,28.83
2019-02-05T02:33:26.983Z,30.00
2019-02-05T02:35:55.950Z,30.77
2019-02-05T02:38:25.627Z,41.18
2019-02-05T02:40:54.493Z,31.57
2019-02-05T02:43:23.403Z,30.10
2019-02-05T02:45:55.430Z,30.10
2019-02-05T02:48:24.281Z,28.60
2019-02-05T02:50:53.484Z,29.03
2019-02-05T02:53:23.178Z,29.17
2019-02-05T02:55:52.102Z,29.00
2019-02-05T02:58:21.053Z,26.70
2019-02-05T03:00:50.085Z,28.43
2019-02-05T03:03:21.765Z,27.70
2019-02-05T03:05:50.730Z,29.33
2019-02-05T03:08:19.978Z,40.10
2019-02-05T03:10:52.099Z,31.20
2019-02-05T03:13:21.048Z,41.85
2019-02-05T03:15:49.966Z,32.33
2019-02-05T03:18:18.931Z,32.57
2019-02-05T03:20:47.846Z,30.37
2019-02-05T03:23:17.459Z,30.00
2019-02-05T03:25:46.391Z,33.33
2019-02-05T03:28:16.086Z,30.80
2019-02-05T03:30:45.134Z,45.95
2019-02-05T03:33:14.085Z,36.63
2019-02-05T03:35:42.992Z,36.03
2019-02-05T03:38:11.914Z,34.07
2019-02-05T03:41:06.887Z,35.00
2019-02-05T03:43:40.070Z,34.63
2019-02-05T03:46:15.826Z,35.93
2019-02-05T03:48:48.542Z,34.90
2019-02-05T03:51:47.514Z,50.30
2019-02-05T03:55:09.356Z,37.17
2019-02-05T03:58:19.560Z,36.97
2019-02-05T04:01:57.351Z,36.33
2019-02-05T04:05:35.144Z,37.53
2019-02-05T04:08:33.605Z,37.67
2019-02-05T04:11:29.946Z,36.50
2019-02-05T04:14:27.121Z,34.97
2019-02-05T04:17:37.198Z,37.30
2019-02-05T04:21:00.073Z,37.03
2019-02-05T04:24:10.954Z,39.90
2019-02-05T04:27:09.875Z,38.13
2019-02-05T04:30:04.112Z,58.63
2019-02-05T04:33:05.416Z,41.77
2019-02-05T04:36:14.906Z,40.73
2019-02-05T04:39:13.075Z,38.30
2019-02-05T04:42:34.746Z,39.20
2019-02-05T04:45:39.426Z,39.73
2019-02-05T04:48:43.672Z,39.47
2019-02-05T04:51:59.139Z,41.20
2019-02-05T04:55:18.661Z,38.13
2019-02-05T04:58:09.775Z,40.40
2019-02-05T05:01:22.606Z,41.07
2019-02-05T05:04:21.434Z,43.23
2019-02-05T05:07:31.427Z,41.37
2019-02-05T05:10:00.736Z,40.00
2019-02-05T05:12:30.063Z,63.25
2019-02-05T05:14:59.887Z,46.40
2019-02-05T05:17:28.697Z,45.87
2019-02-05T05:19:57.613Z,41.77
2019-02-05T05:22:26.980Z,44.00
2019-02-05T05:24:55.958Z,60.70
2019-02-05T05:27:25.268Z,47.00
2019-02-05T05:29:54.202Z,43.27
2019-02-05T05:32:23.285Z,44.27
2019-02-05T05:34:52.116Z,43.80
2019-02-05T05:37:20.578Z,62.10
2019-02-05T05:39:49.584Z,49.23
2019-02-05T05:42:18.452Z,60.88
2019-02-05T05:44:47.384Z,46.50
2019-02-05T05:47:16.312Z,46.20
2019-02-05T05:49:45.217Z,43.80
2019-02-05T05:52:15.030Z,43.17
2019-02-05T05:54:43.973Z,46.07
2019-02-05T05:57:12.949Z,42.07
2019-02-05T05:59:41.861Z,42.20
2019-02-05T06:02:11.971Z,44.50
2019-02-05T06:04:40.916Z,43.77
2019-02-05T06:07:09.822Z,44.10
2019-02-05T06:09:38.785Z,43.70
2019-02-05T06:12:07.724Z,41.53
2019-02-05T06:14:36.722Z,47.13
2019-02-05T06:17:05.696Z,42.30
2019-02-05T06:19:34.772Z,42.57
2019-02-05T06:22:03.696Z,43.73
2019-02-05T06:24:32.681Z,61.95
2019-02-05T06:27:01.597Z,46.27
2019-02-05T06:29:30.532Z,43.83
2019-02-05T06:31:59.523Z,41.57
2019-02-05T06:34:28.683Z,41.13
2019-02-05T06:36:57.583Z,42.10
2019-02-05T06:39:26.910Z,41.23
2019-02-05T06:41:55.821Z,43.60
2019-02-05T06:44:24.789Z,40.17
2019-02-05T06:46:53.688Z,55.48
2019-02-05T06:49:22.606Z,43.03
2019-02-05T06:51:52.358Z,42.10
2019-02-05T06:54:21.642Z,40.43
2019-02-05T06:56:50.544Z,40.13
2019-02-05T06:59:19.488Z,39.87
2019-02-05T07:01:48.637Z,42.50
2019-02-05T07:04:17.563Z,40.33
2019-02-05T07:06:46.535Z,39.50
2019-02-05T07:09:15.515Z,39.43
2019-02-05T07:11:44.521Z,42.03
2019-02-05T07:14:13.476Z,40.10
2019-02-05T07:16:42.456Z,40.37
2019-02-05T07:19:11.471Z,40.63
2019-02-05T07:21:40.711Z,39.27
2019-02-05T07:24:09.687Z,39.93
2019-02-05T07:26:38.793Z,36.37
2019-02-05T07:29:07.852Z,40.13
2019-02-05T07:31:36.821Z,40.17
2019-02-05T07:34:05.823Z,39.50
2019-02-05T07:36:34.801Z,40.27
2019-02-05T07:39:04.229Z,40.57
2019-02-05T07:41:33.397Z,40.63
2019-02-05T07:44:02.219Z,39.77
2019-02-05T07:46:31.183Z,40.00
2019-02-05T07:49:00.490Z,39.10
2019-02-05T07:51:29.462Z,53.50
2019-02-05T07:53:58.410Z,55.52
2019-02-05T07:56:27.390Z,40.93
2019-02-05T07:58:56.523Z,38.03
2019-02-05T08:01:26.093Z,39.67
2019-02-05T08:03:55.099Z,37.30
2019-02-05T08:06:24.107Z,38.23
2019-02-05T08:08:53.595Z,38.57
2019-02-05T08:11:22.581Z,38.57
2019-02-05T08:13:52.340Z,37.80
2019-02-05T08:16:22.697Z,35.50
2019-02-05T08:18:51.669Z,37.33
2019-02-05T08:21:20.654Z,37.13
2019-02-05T08:23:49.646Z,38.23
2019-02-05T08:26:19.022Z,37.93
2019-02-05T08:28:48.053Z,35.37
2019-02-05T08:31:17.056Z,35.20
2019-02-05T08:33:46.281Z,35.33
2019-02-05T08:36:16.105Z,34.77
2019-02-05T08:38:45.084Z,45.08
2019-02-05T08:41:14.307Z,36.87
2019-02-05T08:43:43.291Z,35.03
2019-02-05T08:46:12.269Z,46.07
2019-02-05T08:48:41.252Z,35.40
2019-02-05T08:51:10.243Z,31.87
2019-02-05T08:53:39.308Z,33.97
2019-02-05T08:56:08.378Z,32.73
2019-02-05T08:58:37.461Z,31.73
2019-02-05T09:01:06.828Z,31.77
2019-02-05T09:03:35.799Z,31.10
2019-02-05T09:06:05.099Z,30.00
2019-02-05T09:08:34.068Z,29.77
2019-02-05T09:11:03.063Z,30.83
2019-02-05T09:13:32.056Z,32.70
2019-02-05T09:16:01.042Z,30.13
2019-02-05T09:18:30.034Z,30.57
2019-02-05T09:20:59.099Z,29.67
2019-02-05T09:23:28.077Z,32.33
2019-02-05T09:25:57.074Z,32.67
2019-02-05T09:28:26.078Z,31.07
2019-02-05T09:30:55.057Z,31.80
2019-02-05T09:33:24.055Z,31.70
2019-02-05T09:35:53.020Z,30.33
2019-02-05T09:38:22.002Z,30.97
2019-02-05T09:40:50.998Z,31.63
2019-02-05T09:43:23.074Z,28.53
2019-02-05T09:45:52.062Z,28.33
2019-02-05T09:48:21.044Z,30.47
2019-02-05T09:50:50.092Z,38.17
2019-02-05T09:53:19.089Z,32.93
2019-02-05T09:55:48.085Z,30.03
2019-02-05T09:58:17.115Z,29.40
2019-02-05T10:00:46.031Z,30.07
2019-02-05T10:03:14.971Z,29.03
2019-02-05T10:05:43.971Z,29.13
2019-02-05T10:08:12.923Z,30.57
2019-02-05T10:10:41.929Z,29.83
2019-02-05T10:13:10.852Z,30.40
2019-02-05T10:15:40.478Z,29.43
2019-02-05T10:18:11.022Z,28.77
2019-02-05T10:20:40.102Z,29.03
2019-02-05T10:23:09.515Z,30.07
2019-02-05T10:25:38.590Z,31.33
2019-02-05T10:28:07.753Z,38.10
2019-02-05T10:30:39.325Z,30.87
2019-02-05T10:33:08.870Z,30.50
2019-02-05T10:35:38.010Z,28.57
2019-02-05T10:38:07.229Z,28.97
2019-02-05T10:40:36.328Z,28.00
2019-02-05T10:43:06.146Z,27.47
2019-02-05T10:45:35.226Z,28.47
2019-02-05T10:48:04.364Z,29.27
2019-02-05T10:50:33.296Z,29.67
2019-02-05T10:53:02.278Z,30.40
2019-02-05T10:55:31.401Z,28.53
2019-02-05T10:58:00.327Z,29.47
2019-02-05T11:00:30.478Z,39.63
2019-02-05T11:03:01.400Z,38.50
2019-02-05T11:05:30.988Z,30.33
2019-02-05T11:08:00.056Z,31.30
2019-02-05T11:10:28.982Z,26.83
2019-02-05T11:12:57.902Z,28.97
2019-02-05T11:15:28.902Z,27.20
2019-02-05T11:17:58.138Z,28.70
2019-02-05T11:20:27.515Z,29.70
2019-02-05T11:22:56.497Z,29.60
2019-02-05T11:25:25.505Z,29.07
2019-02-05T11:27:54.465Z,29.67
2019-02-05T11:30:32.187Z,29.73
2019-02-05T11:33:01.176Z,30.63
2019-02-05T11:35:30.121Z,29.87
2019-02-05T11:37:59.094Z,30.23
2019-02-05T11:40:30.355Z,30.27
2019-02-05T11:42:59.353Z,29.27
2019-02-05T11:45:28.302Z,30.53
2019-02-05T11:47:57.797Z,28.03
2019-02-05T11:50:26.751Z,30.37
2019-02-05T11:52:55.759Z,31.43
2019-02-05T11:55:25.857Z,30.67
2019-02-05T11:57:54.757Z,31.67
2019-02-05T12:00:32.627Z,32.60
2019-02-05T12:02:58.563Z,31.73
2019-02-05T12:05:27.533Z,31.73
2019-02-05T12:07:56.879Z,30.97
2019-02-05T12:10:25.889Z,31.83
2019-02-05T12:12:54.911Z,32.97
2019-02-05T12:15:23.864Z,31.20
2019-02-05T12:17:52.830Z,33.70
2019-02-05T12:20:21.869Z,33.27
2019-02-05T12:22:50.860Z,33.60
2019-02-05T12:25:19.804Z,33.07
2019-02-05T12:27:48.808Z,31.90
2019-02-05T12:30:26.605Z,31.43
2019-02-05T12:32:55.620Z,32.27
2019-02-05T12:35:24.639Z,32.17
2019-02-05T12:37:53.616Z,31.97
2019-02-05T12:40:22.899Z,32.73
2019-02-05T12:42:51.898Z,34.00
2019-02-05T12:45:23.059Z,33.97
2019-02-05T12:47:52.110Z,33.37
2019-02-05T12:50:23.279Z,32.80
2019-02-05T12:52:52.305Z,34.07
2019-02-05T12:55:22.100Z,34.53
2019-02-05T12:57:51.073Z,33.30
2019-02-05T13:00:25.999Z,33.70
2019-02-05T13:02:56.000Z,33.57
2019-02-05T13:05:24.939Z,44.43
2019-02-05T13:07:54.221Z,44.13
2019-02-05T13:10:25.420Z,36.23
2019-02-05T13:12:54.419Z,35.77
2019-02-05T13:15:23.703Z,43.83
2019-02-05T13:17:52.672Z,36.20
2019-02-05T13:20:23.840Z,33.03
2019-02-05T13:22:53.728Z,33.70
2019-02-05T13:25:24.562Z,33.67
2019-02-05T13:27:53.536Z,32.53
2019-02-05T13:30:30.424Z,32.33
2019-02-05T13:32:59.407Z,33.30
2019-02-05T13:35:28.398Z,43.27
2019-02-05T13:37:59.156Z,35.83
2019-02-05T13:40:28.168Z,33.63
2019-02-05T13:42:57.578Z,30.60
2019-02-05T13:45:28.103Z,30.33
2019-02-05T13:47:57.117Z,33.07
2019-02-05T13:50:32.976Z,32.13
2019-02-05T13:52:56.748Z,30.20
2019-02-05T13:55:27.647Z,38.45
2019-02-05T13:57:57.058Z,33.30
2019-02-05T14:00:37.824Z,32.60
2019-02-05T14:03:09.166Z,30.50
2019-02-05T14:05:38.751Z,29.00
2019-02-05T14:08:07.743Z,29.40
2019-02-05T14:10:36.990Z,30.97
2019-02-05T14:13:06.911Z,30.30
2019-02-05T14:15:38.169Z,32.57
2019-02-05T14:18:09.052Z,30.17
2019-02-05T14:20:38.742Z,31.67
2019-02-05T14:23:08.332Z,31.27
2019-02-05T14:25:37.611Z,30.33
2019-02-05T14:28:06.590Z,32.33
2019-02-05T14:30:39.332Z,31.30
2019-02-05T14:33:08.619Z,28.83
2019-02-05T14:35:37.881Z,30.13
2019-02-05T14:38:08.345Z,29.07
2019-02-05T14:40:38.906Z,29.77
2019-02-05T14:43:09.281Z,29.30
2019-02-05T14:45:38.587Z,30.13
2019-02-05T14:48:08.345Z,30.43
2019-02-05T14:50:37.765Z,29.83
2019-02-05T14:53:07.579Z,29.90
2019-02-05T14:55:36.878Z,30.27
2019-02-05T14:58:07.783Z,28.60
2019-02-05T15:00:39.887Z,30.53
2019-02-05T15:03:10.498Z,30.37
2019-02-05T15:05:40.329Z,30.67
2019-02-05T15:08:10.128Z,30.10
2019-02-05T15:10:39.311Z,29.60
2019-02-05T15:13:08.630Z,30.40
2019-02-05T15:15:37.677Z,29.60
2019-02-05T15:18:08.793Z,29.03
2019-02-05T15:20:43.339Z,28.73
2019-02-05T15:23:12.959Z,39.20
2019-02-05T15:25:42.065Z,32.03
2019-02-05T15:28:11.041Z,29.33
2019-02-05T15:30:41.612Z,29.53
2019-02-05T15:33:22.206Z,29.47
2019-02-05T15:35:53.894Z,27.87
2019-02-05T15:38:22.920Z,27.47
2019-02-05T15:40:52.175Z,27.13
2019-02-05T15:43:21.176Z,27.63
2019-02-05T15:45:50.210Z,28.63
2019-02-05T15:48:19.193Z,29.70
2019-02-05T15:50:48.153Z,29.97
2019-02-05T15:53:17.212Z,28.97
2019-02-05T15:55:47.042Z,29.13
2019-02-05T15:58:16.064Z,30.23
2019-02-05T16:00:45.348Z,30.77
2019-02-05T16:03:14.330Z,30.57
2019-02-05T16:05:43.700Z,29.60
2019-02-05T16:08:12.638Z,29.77
2019-02-05T16:10:41.666Z,30.87
2019-02-05T16:13:15.424Z,40.10
2019-02-05T16:15:44.387Z,32.80
2019-02-05T16:18:13.357Z,32.97
2019-02-05T16:20:42.738Z,31.47
2019-02-05T16:23:11.688Z,32.17
2019-02-05T16:25:40.688Z,32.50
2019-02-05T16:28:09.674Z,31.07
2019-02-05T16:30:38.697Z,32.70
2019-02-05T16:33:08.081Z,30.80
2019-02-05T16:35:37.121Z,32.17
2019-02-05T16:38:06.894Z,33.10
2019-02-05T16:40:36.057Z,32.10
2019-02-05T16:43:06.240Z,32.43
2019-02-05T16:45:35.332Z,34.17
2019-02-05T16:48:04.311Z,33.00
2019-02-05T16:50:36.119Z,33.23
2019-02-05T16:53:06.335Z,33.67
2019-02-05T16:55:36.604Z,33.03
2019-02-05T16:58:06.879Z,33.57
2019-02-05T17:00:35.910Z,34.83
2019-02-05T17:03:05.465Z,33.20
2019-02-05T17:05:36.157Z,32.33
2019-02-05T17:08:05.145Z,34.67
2019-02-05T17:10:36.135Z,31.67
2019-02-05T17:13:05.503Z,33.00
2019-02-05T17:15:35.439Z,34.00
2019-02-05T17:18:04.713Z,34.03
2019-02-05T17:20:33.747Z,33.93
2019-02-05T17:23:02.742Z,31.47
2019-02-05T17:25:31.732Z,32.07
2019-02-05T17:28:01.542Z,33.43
2019-02-05T17:30:42.430Z,32.00
2019-02-05T17:33:11.571Z,32.67
2019-02-05T17:35:40.558Z,32.97
2019-02-05T17:38:18.061Z,33.17
2019-02-05T17:40:47.974Z,40.30
2019-02-05T17:43:27.219Z,32.10
2019-02-05T17:46:05.920Z,32.07
2019-02-05T17:48:33.632Z,31.10
2019-02-05T17:51:02.719Z,32.47
2019-02-05T17:53:31.773Z,32.90
2019-02-05T17:56:00.840Z,32.53
2019-02-05T17:58:29.867Z,41.43
2019-02-05T18:01:02.361Z,33.30
2019-02-05T18:03:31.919Z,40.33
2019-02-05T18:06:01.655Z,32.60
2019-02-05T18:08:30.681Z,31.10
2019-02-05T18:11:00.346Z,30.43
2019-02-05T18:13:29.293Z,32.33
2019-02-05T18:16:00.625Z,32.60
2019-02-05T18:18:29.650Z,32.53
2019-02-05T18:20:58.668Z,33.33
2019-02-05T18:23:27.637Z,33.73
2019-02-05T18:25:56.604Z,33.67
2019-02-05T18:28:25.667Z,35.43
2019-02-05T18:30:54.611Z,35.47
2019-02-05T18:33:23.595Z,36.03
2019-02-05T18:35:52.911Z,34.70
2019-02-05T18:38:22.521Z,34.83
2019-02-05T18:40:51.510Z,35.10
2019-02-05T18:43:20.499Z,34.57
2019-02-05T18:45:49.468Z,34.97
2019-02-05T18:48:18.449Z,35.83
2019-02-05T18:50:47.444Z,37.10
2019-02-05T18:53:16.750Z,37.30
2019-02-05T18:55:45.845Z,36.80
2019-02-05T18:58:14.816Z,37.33
2019-02-05T19:00:43.911Z,38.03
2019-02-05T19:03:15.980Z,37.33
2019-02-05T19:05:41.849Z,38.03
2019-02-05T19:08:10.904Z,37.87
2019-02-05T19:10:39.918Z,37.37
2019-02-05T19:13:10.243Z,36.53
2019-02-05T19:15:39.203Z,36.33
2019-02-05T19:18:08.508Z,39.07
2019-02-05T19:20:37.500Z,36.03
2019-02-05T19:23:08.014Z,36.63
2019-02-05T19:26:14.445Z,35.20
2019-02-05T19:28:44.227Z,34.17
2019-02-05T19:31:22.020Z,35.57
2019-02-05T19:33:50.997Z,34.40
2019-02-05T19:36:20.062Z,32.97
2019-02-05T19:38:49.076Z,35.27
2019-02-05T19:41:18.071Z,33.90
2019-02-05T19:43:47.019Z,33.27
2019-02-05T19:46:27.069Z,31.30
2019-02-05T19:49:09.831Z,32.17
2019-02-05T19:51:40.495Z,32.57
2019-02-05T19:54:13.079Z,31.57
2019-02-05T19:56:42.047Z,32.40
2019-02-05T19:59:12.340Z,33.10
2019-02-05T20:01:42.173Z,34.30
2019-02-05T20:04:11.268Z,32.17
2019-02-05T20:06:40.351Z,31.73
2019-02-05T20:09:12.430Z,31.60
2019-02-05T20:11:41.514Z,33.37
2019-02-05T20:14:10.926Z,32.70
2019-02-05T20:16:39.964Z,32.20
2019-02-05T20:19:08.913Z,32.17
2019-02-05T20:21:37.914Z,40.40
2019-02-05T20:24:06.967Z,33.70
2019-02-05T20:26:35.994Z,33.37
2019-02-05T20:29:05.004Z,32.70
2019-02-05T20:31:35.301Z,31.67
2019-02-05T20:34:04.451Z,33.63
2019-02-05T20:36:33.806Z,32.20
2019-02-05T20:39:27.381Z,33.27
2019-02-05T20:41:56.458Z,31.80
2019-02-05T20:44:25.823Z,33.50
2019-02-05T20:46:55.071Z,33.93
2019-02-05T20:49:24.168Z,33.30
2019-02-05T20:51:53.430Z,34.20
2019-02-05T20:54:22.547Z,42.40
2019-02-05T20:56:52.167Z,35.60
2019-02-05T20:59:46.461Z,34.07
2019-02-05T21:02:15.476Z,33.17
2019-02-05T21:04:48.522Z,33.87
2019-02-05T21:07:13.418Z,32.97
2019-02-05T21:09:47.331Z,33.27
2019-02-05T21:12:16.449Z,32.80
2019-02-05T21:14:46.297Z,35.77
2019-02-05T21:17:15.272Z,33.10
2019-02-05T21:19:48.841Z,34.27
2019-02-05T21:22:17.920Z,34.33
2019-02-05T21:24:47.199Z,33.53
2019-02-05T21:27:16.305Z,34.20
2019-02-05T21:29:45.433Z,34.67
2019-02-05T21:32:14.619Z,33.10
2019-02-05T21:34:43.706Z,34.70
2019-02-05T21:37:12.981Z,34.97
2019-02-05T21:39:41.988Z,35.43
2019-02-05T21:42:11.125Z,34.97
2019-02-05T21:44:40.325Z,35.67
2019-02-05T21:47:09.452Z,35.00
2019-02-05T21:49:38.720Z,34.73
2019-02-05T21:52:07.890Z,44.03
2019-02-05T21:54:37.098Z,35.63
2019-02-05T21:57:06.169Z,35.17
2019-02-05T21:59:35.354Z,34.67
2019-02-05T22:02:04.542Z,36.07
2019-02-05T22:04:36.473Z,33.40
2019-02-05T22:07:05.721Z,33.50
2019-02-05T22:09:34.827Z,33.50
2019-02-05T22:12:03.999Z,34.83
2019-02-05T22:14:33.075Z,35.27
2019-02-05T22:17:02.199Z,34.33
2019-02-05T22:19:31.281Z,34.07
2019-02-05T22:22:00.376Z,35.30
2019-02-05T22:24:29.333Z,48.23
2019-02-05T22:26:58.312Z,33.23
2019-02-05T22:29:27.399Z,33.40
2019-02-05T22:31:56.328Z,43.53
2019-02-05T22:34:25.296Z,36.27
2019-02-05T22:36:54.282Z,33.60
2019-02-05T22:39:23.307Z,43.35
2019-02-05T22:41:52.379Z,43.97
2019-02-05T22:44:21.325Z,43.95
2019-02-05T22:46:50.365Z,35.13
2019-02-05T22:49:19.662Z,33.57
2019-02-05T22:51:48.683Z,32.23
2019-02-05T22:54:17.699Z,31.80
2019-02-05T22:56:46.693Z,32.03
2019-02-05T22:59:15.606Z,31.97
2019-02-05T23:01:51.045Z,31.40
2019-02-05T23:04:38.088Z,32.43
2019-02-05T23:07:13.228Z,32.60
2019-02-05T23:10:03.041Z,32.80
2019-02-05T23:12:36.543Z,30.60
2019-02-05T23:15:18.340Z,31.07
2019-02-05T23:17:47.348Z,40.60
2019-02-05T23:20:18.349Z,32.40
2019-02-05T23:22:47.353Z,30.10
2019-02-05T23:25:16.295Z,30.57
2019-02-05T23:27:45.621Z,28.53
2019-02-05T23:30:17.774Z,29.13
2019-02-05T23:32:46.660Z,34.80
2019-02-05T23:35:15.724Z,28.63
2019-02-05T23:37:44.691Z,25.73
2019-02-05T23:40:14.044Z,24.77
2019-02-05T23:42:42.981Z,24.40
2019-02-05T23:45:12.160Z,22.97
2019-02-05T23:47:41.093Z,28.15
2019-02-05T23:50:12.672Z,22.90
2019-02-05T23:52:41.640Z,20.70
2019-02-05T23:55:15.102Z,19.87
2019-02-05T23:57:44.407Z,18.50
